Time;durP1;ratioP1;P1;durP2;ratioP2;P2;SDS_P1;SDS_P2;PMS_P1;PMS_P2;Temp;Humidity;BMP_temperature;BMP_pressure;BME280_temperature;BME280_humidity;BME280_pressure;Samples;Min_cycle;Max_cycle;Signal;HPM_P1;HPM_P2
2023/05/14 00:01:35;;;;;;;12.98;9.75;;;12.70;93.10;;;;;;6183416;22;91669;-75
2023/05/14 00:04:01;;;;;;;12.35;10.73;;;12.60;93.20;;;;;;6181897;22;93548;-75
2023/05/14 00:06:27;;;;;;;12.88;10.48;;;12.50;93.10;;;;;;6181609;22;93066;-75
2023/05/14 00:08:52;;;;;;;13.85;9.75;;;12.50;93.20;;;;;;6181376;22;93499;-74
2023/05/14 00:11:18;;;;;;;14.68;10.25;;;12.40;93.20;;;;;;6181931;22;92724;-75
2023/05/14 00:13:44;;;;;;;12.55;10.93;;;12.30;93.10;;;;;;6182559;22;93392;-75
2023/05/14 00:16:10;;;;;;;13.95;11.10;;;12.30;93.20;;;;;;6180562;22;93252;-74
2023/05/14 00:18:36;;;;;;;11.32;9.88;;;12.20;93.30;;;;;;6181260;22;92506;-75
2023/05/14 00:21:02;;;;;;;12.23;10.32;;;12.10;93.20;;;;;;6182270;22;92513;-74
2023/05/14 00:23:27;;;;;;;16.25;10.65;;;12.10;93.40;;;;;;6180264;22;93227;-74
2023/05/14 00:25:53;;;;;;;14.18;11.38;;;12.00;93.50;;;;;;6154952;22;95162;-75
2023/05/14 00:28:19;;;;;;;13.80;10.88;;;12.00;93.60;;;;;;6182766;22;92159;-75
2023/05/14 00:30:45;;;;;;;14.40;11.10;;;11.90;93.60;;;;;;6154360;22;92686;-75
2023/05/14 00:33:11;;;;;;;12.75;10.93;;;11.90;93.60;;;;;;6179269;22;94128;-74
2023/05/14 00:35:36;;;;;;;13.02;11.30;;;11.80;93.50;;;;;;6180672;22;93709;-75
2023/05/14 00:38:02;;;;;;;14.05;12.07;;;11.80;94.10;;;;;;6181295;22;92664;-74
2023/05/14 00:40:28;;;;;;;12.35;10.55;;;11.70;94.20;;;;;;6183726;22;92617;-74
2023/05/14 00:42:55;;;;;;;14.45;10.45;;;11.70;94.00;;;;;;6182410;22;92806;-74
2023/05/14 00:45:21;;;;;;;14.75;10.93;;;11.60;93.90;;;;;;6182083;22;92521;-75
2023/05/14 00:47:47;;;;;;;16.23;12.00;;;11.50;94.00;;;;;;6182627;22;92536;-74
2023/05/14 00:50:15;;;;;;;14.40;12.15;;;11.50;94.20;;;;;;6183361;22;91980;-75
2023/05/14 00:52:41;;;;;;;18.52;11.30;;;11.50;94.90;;;;;;6183599;22;94045;-74
2023/05/14 00:55:08;;;;;;;13.65;11.00;;;11.40;94.80;;;;;;6182222;22;92898;-75
2023/05/14 00:57:35;;;;;;;14.70;11.00;;;11.40;94.40;;;;;;6181592;22;93591;-75
2023/05/14 01:00:02;;;;;;;14.40;11.90;;;11.40;94.40;;;;;;6181720;22;92587;-75
2023/05/14 01:02:27;;;;;;;15.10;12.52;;;11.30;94.40;;;;;;6182189;22;93689;-75
2023/05/14 01:04:54;;;;;;;14.88;12.30;;;11.30;95.10;;;;;;6181425;22;93239;-77
2023/05/14 01:07:35;;;;;;;19.00;12.68;;;11.30;94.80;;;;;;6183449;22;92498;-74
2023/05/14 01:10:10;;;;;;;13.23;11.45;;;11.30;94.80;;;;;;6155609;22;92626;-75
2023/05/14 01:12:57;;;;;;;17.83;12.13;;;11.20;94.50;;;;;;6181438;22;93682;-75
2023/05/14 01:15:34;;;;;;;15.48;11.93;;;11.20;94.70;;;;;;6167374;22;93417;-75
2023/05/14 01:18:11;;;;;;;16.13;11.77;;;11.20;94.60;;;;;;6182592;22;92028;-75
2023/05/14 01:20:37;;;;;;;16.35;12.45;;;11.10;94.70;;;;;;6181939;22;92627;-75
2023/05/14 01:23:03;;;;;;;20.13;13.15;;;11.10;94.70;;;;;;6181247;22;94203;-75
2023/05/14 01:25:30;;;;;;;16.67;13.43;;;11.10;95.00;;;;;;6183065;22;94329;-75
2023/05/14 01:28:16;;;;;;;16.15;12.38;;;11.00;95.00;;;;;;6182389;22;93209;-75
2023/05/14 01:31:02;;;;;;;17.25;12.07;;;11.00;94.80;;;;;;6182106;22;92549;-75
2023/05/14 01:33:30;;;;;;;16.80;12.13;;;11.00;94.70;;;;;;6181455;22;93446;-75
2023/05/14 01:35:57;;;;;;;13.15;11.63;;;11.00;94.70;;;;;;6181660;22;93513;-74
2023/05/14 01:38:24;;;;;;;15.55;12.70;;;11.00;94.70;;;;;;6182546;22;92572;-74
2023/05/14 01:40:51;;;;;;;19.55;12.77;;;11.00;94.60;;;;;;6182438;22;91555;-75
2023/05/14 01:43:18;;;;;;;16.15;12.98;;;10.90;94.70;;;;;;6182773;22;92618;-75
2023/05/14 01:45:43;;;;;;;16.23;13.07;;;10.90;94.80;;;;;;6182022;22;93196;-75
2023/05/14 01:48:09;;;;;;;20.17;15.02;;;10.90;94.90;;;;;;6181545;22;93432;-75
2023/05/14 01:50:35;;;;;;;17.40;13.45;;;10.90;95.40;;;;;;6182151;22;92679;-75
2023/05/14 01:53:01;;;;;;;17.75;13.63;;;10.80;95.20;;;;;;6181569;22;93434;-75
2023/05/14 01:55:26;;;;;;;17.88;14.43;;;10.80;95.00;;;;;;6182636;22;92798;-75
2023/05/14 01:57:52;;;;;;;24.02;15.93;;;10.80;95.20;;;;;;6182718;22;92703;-75
2023/05/14 02:00:19;;;;;;;24.02;15.55;;;10.70;95.50;;;;;;6181432;22;92626;-75
2023/05/14 02:02:45;;;;;;;20.55;15.32;;;10.70;95.80;;;;;;6181874;22;95667;-75
2023/05/14 02:05:12;;;;;;;18.65;13.45;;;10.70;95.80;;;;;;6182570;22;93254;-75
2023/05/14 02:07:37;;;;;;;18.25;13.35;;;10.70;95.60;;;;;;6182863;22;92428;-75
2023/05/14 02:10:03;;;;;;;19.90;15.68;;;10.60;95.30;;;;;;6181821;22;92610;-75
2023/05/14 02:12:29;;;;;;;17.92;14.23;;;10.60;95.30;;;;;;6181264;22;94971;-75
2023/05/14 02:14:55;;;;;;;19.70;15.05;;;10.60;95.50;;;;;;6181717;22;94370;-76
2023/05/14 02:17:21;;;;;;;25.02;16.05;;;10.60;95.50;;;;;;6181434;22;92534;-75
2023/05/14 02:19:46;;;;;;;21.17;15.38;;;10.50;95.60;;;;;;6182849;22;92647;-75
2023/05/14 02:22:12;;;;;;;23.20;16.15;;;10.50;95.50;;;;;;6181897;22;97357;-75
2023/05/14 02:24:38;;;;;;;20.20;15.50;;;10.40;95.80;;;;;;6181689;22;93906;-75
2023/05/14 02:27:04;;;;;;;16.13;13.20;;;10.40;95.50;;;;;;6182313;22;92385;-75
2023/05/14 02:29:30;;;;;;;20.42;15.10;;;10.40;95.40;;;;;;6183093;22;91852;-75
2023/05/14 02:31:55;;;;;;;22.65;16.10;;;10.30;95.70;;;;;;6181932;22;92706;-75
2023/05/14 02:34:22;;;;;;;17.05;14.15;;;10.30;95.60;;;;;;6183096;22;93206;-75
2023/05/14 02:36:47;;;;;;;20.15;15.65;;;10.30;95.40;;;;;;6180700;22;93157;-75
2023/05/14 02:39:13;;;;;;;21.00;15.80;;;10.20;95.40;;;;;;6182252;22;92569;-75
2023/05/14 02:41:39;;;;;;;21.17;16.52;;;10.20;95.50;;;;;;6182182;22;93078;-75
2023/05/14 02:44:04;;;;;;;20.65;15.48;;;10.20;95.40;;;;;;6180888;22;93307;-75
2023/05/14 02:46:30;;;;;;;24.17;16.83;;;10.10;95.50;;;;;;6183205;22;92331;-75
2023/05/14 02:48:56;;;;;;;23.27;16.50;;;10.10;95.70;;;;;;6182171;22;92404;-75
2023/05/14 02:51:22;;;;;;;23.25;17.08;;;10.10;95.90;;;;;;6182299;22;93872;-75
2023/05/14 02:53:48;;;;;;;23.45;17.67;;;10.00;95.90;;;;;;6181716;22;93979;-75
2023/05/14 02:56:13;;;;;;;34.63;21.75;;;10.00;95.60;;;;;;6155198;22;92680;-74
2023/05/14 02:58:39;;;;;;;27.95;20.75;;;10.00;95.70;;;;;;6183522;22;92676;-75
2023/05/14 03:01:05;;;;;;;32.20;22.50;;;10.00;96.10;;;;;;6153818;22;96704;-75
2023/05/14 03:03:31;;;;;;;36.15;25.70;;;10.00;96.30;;;;;;6181471;22;93830;-75
2023/05/14 03:05:57;;;;;;;27.75;19.17;;;10.00;96.50;;;;;;6166454;22;93468;-75
2023/05/14 03:08:22;;;;;;;32.20;22.98;;;10.00;96.20;;;;;;6180451;22;92504;-75
2023/05/14 03:10:48;;;;;;;32.30;21.83;;;10.00;96.10;;;;;;6181444;22;94020;-75
2023/05/14 03:13:16;;;;;;;32.80;21.98;;;9.90;96.10;;;;;;6155217;22;95354;-75
2023/05/14 03:15:43;;;;;;;34.00;23.23;;;9.90;96.00;;;;;;6154615;22;92490;-75
2023/05/14 03:18:08;;;;;;;34.58;23.40;;;9.80;96.30;;;;;;6182232;22;91932;-74
2023/05/14 03:20:34;;;;;;;41.83;27.38;;;9.80;96.20;;;;;;6180969;22;93724;-75
2023/05/14 03:23:00;;;;;;;35.03;25.10;;;9.80;96.50;;;;;;6181651;22;92600;-75
2023/05/14 03:25:26;;;;;;;31.23;22.65;;;9.80;96.60;;;;;;6182659;22;93494;-75
2023/05/14 03:27:51;;;;;;;31.70;23.77;;;9.80;96.50;;;;;;6154877;22;94615;-75
2023/05/14 03:30:17;;;;;;;35.28;23.63;;;9.70;96.30;;;;;;6181682;22;92206;-75
2023/05/14 03:32:44;;;;;;;34.38;23.20;;;9.70;96.40;;;;;;6181661;22;93028;-75
2023/05/14 03:35:09;;;;;;;41.05;28.00;;;9.70;96.40;;;;;;6181967;22;92481;-75
2023/05/14 03:37:35;;;;;;;38.55;24.80;;;9.70;96.70;;;;;;6182948;22;92576;-75
2023/05/14 03:40:01;;;;;;;28.50;21.08;;;9.70;96.80;;;;;;6181117;22;93243;-75
2023/05/14 03:42:26;;;;;;;33.75;23.02;;;9.60;96.70;;;;;;6182334;22;92719;-75
2023/05/14 03:44:52;;;;;;;34.45;24.67;;;9.60;96.60;;;;;;6180873;22;92653;-75
2023/05/14 03:47:18;;;;;;;43.13;28.13;;;9.60;96.70;;;;;;6181017;22;92572;-75
2023/05/14 03:49:43;;;;;;;35.03;24.52;;;9.60;97.10;;;;;;6182023;22;94669;-75
2023/05/14 03:52:09;;;;;;;39.65;26.25;;;9.60;97.30;;;;;;6181089;22;94744;-75
2023/05/14 03:54:35;;;;;;;34.35;23.75;;;9.60;97.30;;;;;;6181952;22;92171;-74
2023/05/14 03:57:00;;;;;;;38.53;26.10;;;9.60;97.40;;;;;;6181248;22;92585;-75
2023/05/14 03:59:26;;;;;;;34.75;24.60;;;9.60;97.10;;;;;;6154134;22;96525;-75
2023/05/14 04:01:52;;;;;;;48.42;31.58;;;9.60;97.10;;;;;;6154591;22;96313;-75
2023/05/14 04:04:18;;;;;;;48.88;31.50;;;9.60;97.30;;;;;;6182752;22;92503;-75
2023/05/14 04:06:44;;;;;;;61.15;36.10;;;9.60;97.60;;;;;;6181197;22;91743;-75
2023/05/14 04:09:09;;;;;;;66.13;40.47;;;9.60;97.90;;;;;;6180787;22;92969;-75
2023/05/14 04:11:36;;;;;;;67.40;41.88;;;9.80;98.60;;;;;;6181049;22;93657;-75
2023/05/14 04:14:02;;;;;;;70.35;43.00;;;9.80;98.50;;;;;;6180736;22;93832;-75
2023/05/14 04:16:27;;;;;;;75.28;44.50;;;9.80;98.70;;;;;;6182322;22;92226;-75
2023/05/14 04:18:53;;;;;;;68.47;42.00;;;9.90;98.70;;;;;;6181139;22;93463;-75
2023/05/14 04:21:19;;;;;;;72.15;44.53;;;9.90;98.70;;;;;;6153876;22;96434;-75
2023/05/14 04:23:44;;;;;;;73.72;46.28;;;10.00;99.00;;;;;;6181552;22;92228;-75
2023/05/14 04:26:10;;;;;;;70.97;43.10;;;10.00;99.10;;;;;;6181816;22;92160;-75
2023/05/14 04:28:36;;;;;;;70.65;43.28;;;10.10;99.00;;;;;;6181850;22;94174;-75
2023/05/14 04:31:01;;;;;;;78.63;47.25;;;10.10;98.90;;;;;;6154151;22;96860;-75
2023/05/14 04:33:27;;;;;;;75.10;45.15;;;10.10;99.00;;;;;;6181542;22;92451;-75
2023/05/14 04:35:53;;;;;;;67.15;42.60;;;10.20;99.00;;;;;;6180585;22;92385;-75
2023/05/14 04:38:18;;;;;;;68.40;44.33;;;10.20;98.80;;;;;;6179569;22;94127;-75
2023/05/14 04:40:44;;;;;;;67.70;43.50;;;10.20;98.80;;;;;;6182293;22;94355;-75
2023/05/14 04:43:09;;;;;;;73.93;46.15;;;10.20;98.70;;;;;;6153653;22;92448;-75
2023/05/14 04:45:35;;;;;;;76.50;46.88;;;10.30;98.90;;;;;;6181239;22;92665;-75
2023/05/14 04:48:03;;;;;;;86.60;50.38;;;10.30;98.90;;;;;;6180701;22;92504;-74
2023/05/14 04:50:28;;;;;;;88.82;50.97;;;10.40;99.00;;;;;;6180376;22;93742;-75
2023/05/14 04:52:54;;;;;;;91.93;54.10;;;10.50;99.00;;;;;;6181510;22;92587;-74
2023/05/14 04:55:20;;;;;;;94.47;52.60;;;10.60;99.10;;;;;;6182636;22;91765;-75
2023/05/14 04:57:46;;;;;;;97.30;55.75;;;10.60;99.00;;;;;;6154248;22;94951;-76
2023/05/14 05:00:12;;;;;;;88.00;52.58;;;10.70;99.00;;;;;;6181376;22;93435;-76
2023/05/14 05:02:38;;;;;;;90.40;51.47;;;10.80;99.00;;;;;;6180555;22;93521;-76
2023/05/14 05:05:04;;;;;;;85.43;54.03;;;10.90;98.90;;;;;;6179380;22;92957;-76
2023/05/14 05:07:30;;;;;;;98.57;53.40;;;11.00;98.90;;;;;;6181265;22;93469;-76
2023/05/14 05:09:55;;;;;;;92.18;54.13;;;11.10;98.80;;;;;;6153960;22;93943;-77
2023/05/14 05:12:21;;;;;;;101.43;56.58;;;11.10;98.80;;;;;;6181357;22;92600;-77
2023/05/14 05:14:47;;;;;;;92.63;55.10;;;11.20;98.80;;;;;;6153898;22;92869;-77
2023/05/14 05:17:13;;;;;;;110.72;58.28;;;11.30;98.80;;;;;;6154248;22;96351;-77
2023/05/14 05:19:39;;;;;;;107.65;59.15;;;11.30;98.80;;;;;;6182182;22;93097;-77
2023/05/14 05:22:05;;;;;;;119.57;63.17;;;11.30;98.80;;;;;;6181191;22;92596;-77
2023/05/14 05:24:30;;;;;;;122.25;63.40;;;11.40;98.80;;;;;;6181068;22;92566;-77
2023/05/14 05:26:56;;;;;;;115.65;59.08;;;11.40;98.70;;;;;;6181358;22;94528;-77
2023/05/14 05:29:22;;;;;;;125.15;63.28;;;11.50;98.70;;;;;;6181656;22;93470;-77
2023/05/14 05:31:48;;;;;;;113.68;61.47;;;11.50;98.60;;;;;;6182292;22;92605;-76
2023/05/14 05:34:14;;;;;;;122.68;65.30;;;11.50;98.40;;;;;;6182555;22;92490;-77
2023/05/14 05:36:40;;;;;;;118.80;64.20;;;11.60;98.40;;;;;;6182162;22;93642;-78
2023/05/14 05:39:06;;;;;;;120.40;61.97;;;11.60;98.40;;;;;;6182862;22;93233;-77
2023/05/14 05:41:31;;;;;;;120.05;62.33;;;11.70;98.20;;;;;;6182324;22;92380;-76
2023/05/14 05:43:57;;;;;;;110.28;61.65;;;11.70;98.10;;;;;;6182448;22;91962;-76
2023/05/14 05:46:23;;;;;;;104.70;58.67;;;11.80;98.10;;;;;;6182572;22;93241;-76
2023/05/14 05:48:48;;;;;;;122.40;64.45;;;11.90;98.00;;;;;;6181413;22;93275;-76
2023/05/14 05:51:14;;;;;;;114.07;62.17;;;12.00;97.80;;;;;;6182137;22;93547;-75
2023/05/14 05:53:40;;;;;;;111.93;62.00;;;12.00;97.80;;;;;;6181562;22;92476;-74
2023/05/14 05:56:05;;;;;;;101.82;59.58;;;12.00;97.60;;;;;;6182007;22;93045;-75
2023/05/14 05:58:32;;;;;;;105.93;59.88;;;12.10;97.40;;;;;;6182661;22;92675;-75
2023/05/14 06:00:58;;;;;;;102.93;57.88;;;12.10;97.30;;;;;;6181720;22;92558;-75
2023/05/14 06:03:23;;;;;;;97.97;56.58;;;12.20;97.20;;;;;;6181331;22;92456;-75
2023/05/14 06:05:51;;;;;;;99.05;56.13;;;12.30;97.00;;;;;;6181933;22;92943;-75
2023/05/14 06:08:17;;;;;;;99.53;57.28;;;12.40;96.80;;;;;;6181672;22;95203;-74
2023/05/14 06:10:42;;;;;;;93.57;53.85;;;12.40;96.70;;;;;;6182908;22;92553;-75
2023/05/14 06:13:08;;;;;;;90.68;55.40;;;12.40;96.50;;;;;;6155556;22;92519;-74
2023/05/14 06:15:34;;;;;;;91.30;56.42;;;12.50;96.60;;;;;;6181346;22;93735;-75
2023/05/14 06:17:59;;;;;;;96.10;57.28;;;12.60;96.50;;;;;;6181888;22;94182;-76
2023/05/14 06:20:25;;;;;;;89.63;54.70;;;12.60;96.60;;;;;;6182363;22;92543;-75
2023/05/14 06:22:51;;;;;;;84.18;53.80;;;12.70;96.30;;;;;;6182365;22;92466;-74
2023/05/14 06:25:16;;;;;;;87.30;52.72;;;12.80;96.20;;;;;;6182786;22;93509;-74
2023/05/14 06:27:42;;;;;;;81.03;53.05;;;12.80;96.00;;;;;;6182261;22;93868;-74
2023/05/14 06:30:10;;;;;;;83.93;52.90;;;12.90;95.90;;;;;;6154435;22;92460;-74
2023/05/14 06:32:35;;;;;;;80.22;50.83;;;13.00;96.10;;;;;;6182678;22;91691;-74
2023/05/14 06:35:01;;;;;;;75.75;49.83;;;13.10;95.40;;;;;;6181397;22;93167;-74
2023/05/14 06:37:27;;;;;;;75.65;50.88;;;13.10;95.10;;;;;;6181331;22;93624;-74
2023/05/14 06:39:52;;;;;;;80.40;50.85;;;13.20;95.10;;;;;;6181226;22;93382;-74
2023/05/14 06:42:18;;;;;;;72.30;50.28;;;13.30;94.70;;;;;;6181192;22;92540;-74
2023/05/14 06:44:44;;;;;;;76.43;51.03;;;13.40;94.80;;;;;;6180887;22;94097;-75
2023/05/14 06:47:10;;;;;;;79.38;51.22;;;13.50;94.50;;;;;;6181537;22;93167;-76
2023/05/14 06:49:36;;;;;;;74.50;48.78;;;13.70;94.10;;;;;;6181606;22;93065;-75
2023/05/14 06:52:02;;;;;;;73.50;49.33;;;13.70;93.40;;;;;;6182147;22;92383;-77
2023/05/14 06:54:29;;;;;;;72.65;50.33;;;13.70;93.80;;;;;;6181191;22;93760;-76
2023/05/14 06:56:56;;;;;;;65.85;45.80;;;13.90;94.10;;;;;;6178714;22;93585;-75
2023/05/14 06:59:22;;;;;;;69.70;46.72;;;14.00;93.30;;;;;;6151996;22;100023;-75
2023/05/14 07:01:50;;;;;;;66.93;44.92;;;14.20;93.30;;;;;;6181417;22;93020;-74
2023/05/14 07:04:16;;;;;;;63.65;44.03;;;14.30;92.40;;;;;;6154911;22;95789;-75
2023/05/14 07:06:41;;;;;;;63.78;44.17;;;14.60;92.40;;;;;;6181160;22;93968;-74
2023/05/14 07:09:07;;;;;;;60.22;42.38;;;14.80;91.90;;;;;;6179747;22;92511;-75
2023/05/14 07:11:33;;;;;;;60.30;43.75;;;14.90;91.60;;;;;;6177015;22;92546;-78
2023/05/14 07:13:59;;;;;;;64.32;45.13;;;15.00;91.20;;;;;;6177068;22;93407;-76
2023/05/14 07:16:25;;;;;;;57.65;41.65;;;15.00;91.20;;;;;;6176597;22;93803;-75
2023/05/14 07:18:51;;;;;;;55.30;41.42;;;15.00;91.40;;;;;;6177300;22;92662;-77
2023/05/14 07:21:17;;;;;;;58.45;42.55;;;15.00;90.80;;;;;;6180612;22;91978;-78
2023/05/14 07:23:42;;;;;;;58.15;43.60;;;15.00;90.80;;;;;;6154379;22;95022;-77
2023/05/14 07:26:08;;;;;;;60.75;42.40;;;15.00;91.60;;;;;;6184789;22;92985;-78
2023/05/14 07:28:34;;;;;;;55.05;41.20;;;15.20;92.00;;;;;;6181914;22;94240;-76
2023/05/14 07:31:00;;;;;;;56.50;41.28;;;15.30;90.50;;;;;;6180303;22;92762;-76
2023/05/14 07:33:26;;;;;;;55.88;39.80;;;15.30;90.70;;;;;;6182010;22;93956;-78
2023/05/14 07:35:53;;;;;;;52.33;39.03;;;15.40;90.30;;;;;;6181249;22;93635;-78
2023/05/14 07:38:19;;;;;;;49.50;38.50;;;15.50;90.30;;;;;;6182198;22;92344;-78
2023/05/14 07:40:45;;;;;;;52.20;37.28;;;15.70;90.30;;;;;;6183047;22;92396;-77
2023/05/14 07:43:10;;;;;;;62.95;37.58;;;15.90;90.60;;;;;;6154280;22;97126;-77
2023/05/14 07:45:38;;;;;;;50.03;38.10;;;16.20;88.90;;;;;;6182386;22;92850;-77
2023/05/14 07:48:04;;;;;;;51.80;35.25;;;16.30;86.40;;;;;;6181583;22;92423;-76
2023/05/14 07:50:30;;;;;;;47.20;34.83;;;16.20;87.10;;;;;;6180744;22;92429;-76
2023/05/14 07:52:56;;;;;;;46.08;33.95;;;16.20;86.90;;;;;;6180958;22;94338;-75
2023/05/14 07:55:21;;;;;;;44.78;34.45;;;16.00;85.80;;;;;;6155484;22;95717;-75
2023/05/14 07:57:47;;;;;;;42.65;33.42;;;15.90;86.80;;;;;;6182448;22;92458;-75
2023/05/14 08:00:13;;;;;;;40.63;32.08;;;15.90;87.30;;;;;;6181279;22;92140;-76
2023/05/14 08:02:39;;;;;;;39.17;31.00;;;16.00;88.60;;;;;;6181846;22;94312;-77
2023/05/14 08:05:05;;;;;;;37.55;29.05;;;16.20;85.20;;;;;;6180892;22;93820;-75
2023/05/14 08:07:32;;;;;;;36.33;29.25;;;16.10;84.90;;;;;;6182505;22;92414;-77
2023/05/14 08:09:58;;;;;;;43.85;31.23;;;16.10;85.90;;;;;;6181256;22;91417;-76
2023/05/14 08:12:24;;;;;;;42.80;32.15;;;16.10;86.40;;;;;;6181575;22;93499;-77
2023/05/14 08:14:50;;;;;;;41.33;32.08;;;16.10;86.00;;;;;;6180864;22;92814;-77
2023/05/14 08:17:16;;;;;;;38.58;30.30;;;16.10;85.90;;;;;;6180102;22;93456;-76
2023/05/14 08:19:42;;;;;;;38.40;31.23;;;16.20;86.10;;;;;;6155684;22;92138;-77
2023/05/14 08:22:08;;;;;;;42.05;31.50;;;16.30;86.90;;;;;;6181705;22;93140;-76
2023/05/14 08:24:33;;;;;;;38.85;31.50;;;16.20;86.10;;;;;;6154214;22;95744;-77
2023/05/14 08:26:59;;;;;;;42.90;32.20;;;16.40;85.70;;;;;;6181919;22;92336;-78
2023/05/14 08:29:25;;;;;;;40.83;31.95;;;16.60;86.00;;;;;;6154448;22;92412;-78
2023/05/14 08:31:50;;;;;;;37.70;29.85;;;16.60;84.60;;;;;;6179850;22;93818;-75
2023/05/14 08:34:17;;;;;;;43.75;33.08;;;16.60;83.80;;;;;;6182962;22;92079;-76
2023/05/14 08:36:42;;;;;;;43.38;31.65;;;16.60;84.60;;;;;;6181465;22;92739;-76
2023/05/14 08:39:08;;;;;;;43.17;32.90;;;16.80;85.00;;;;;;6181970;22;92697;-76
2023/05/14 08:41:34;;;;;;;35.15;29.20;;;17.20;84.70;;;;;;6154140;22;97619;-76
2023/05/14 08:44:09;;;;;;;37.30;28.92;;;17.40;84.60;;;;;;6180519;22;93624;-75
2023/05/14 08:46:39;;;;;;;39.38;29.45;;;17.80;82.10;;;;;;6154956;22;92541;-75
2023/05/14 08:49:23;;;;;;;41.58;28.70;;;18.00;81.20;;;;;;6181205;22;92637;-75
2023/05/14 08:51:49;;;;;;;34.65;26.67;;;18.10;81.30;;;;;;6181308;22;95208;-75
2023/05/14 08:54:16;;;;;;;36.65;28.17;;;18.30;80.10;;;;;;6180436;22;92856;-76
2023/05/14 08:56:45;;;;;;;35.50;27.27;;;18.60;77.50;;;;;;6181026;22;92547;-75
2023/05/14 08:59:11;;;;;;;34.33;25.75;;;18.60;78.80;;;;;;6180944;22;91939;-76
2023/05/14 09:01:38;;;;;;;38.25;26.98;;;18.70;75.60;;;;;;6183355;22;93396;-76
2023/05/14 09:04:07;;;;;;;34.35;24.80;;;18.80;77.40;;;;;;6182598;22;92500;-75
2023/05/14 09:06:38;;;;;;;33.03;26.63;;;19.10;77.60;;;;;;6182680;22;93590;-76
2023/05/14 09:09:03;;;;;;;36.70;26.90;;;19.20;75.60;;;;;;6182371;22;92577;-75
2023/05/14 09:11:29;;;;;;;34.97;26.45;;;19.20;75.90;;;;;;6182208;22;93952;-76
2023/05/14 09:13:55;;;;;;;33.05;26.30;;;19.10;76.70;;;;;;6182127;22;93226;-75
2023/05/14 09:16:21;;;;;;;44.00;28.65;;;19.20;76.10;;;;;;6183829;22;92416;-76
2023/05/14 09:18:47;;;;;;;33.45;24.92;;;19.20;77.20;;;;;;6182848;22;92338;-75
2023/05/14 09:21:17;;;;;;;35.75;25.75;;;19.10;75.20;;;;;;6182740;22;93320;-76
2023/05/14 09:23:43;;;;;;;28.30;24.08;;;19.10;76.10;;;;;;6182639;22;91715;-75
2023/05/14 09:26:10;;;;;;;28.73;24.65;;;19.40;78.20;;;;;;6183171;22;92082;-75
2023/05/14 09:28:40;;;;;;;33.33;24.23;;;19.80;72.30;;;;;;6156006;22;92619;-74
2023/05/14 09:31:07;;;;;;;31.30;23.52;;;19.60;73.80;;;;;;6181111;22;95015;-73
2023/05/14 09:33:33;;;;;;;27.95;23.65;;;19.40;73.40;;;;;;6154892;22;95681;-73
2023/05/14 09:36:00;;;;;;;31.02;24.20;;;19.60;72.80;;;;;;6182328;22;92446;-73
2023/05/14 09:38:32;;;;;;;27.50;22.75;;;19.70;72.20;;;;;;6182165;22;92593;-74
2023/05/14 09:40:59;;;;;;;34.42;23.55;;;19.70;72.20;;;;;;6181710;22;93617;-73
2023/05/14 09:43:25;;;;;;;31.08;22.17;;;19.80;73.20;;;;;;6182918;22;93937;-73
2023/05/14 09:45:51;;;;;;;27.20;22.15;;;20.20;73.90;;;;;;6182603;22;92467;-73
2023/05/14 09:48:18;;;;;;;30.80;23.23;;;20.70;69.80;;;;;;6182705;22;91831;-74
2023/05/14 09:50:45;;;;;;;31.40;24.48;;;21.00;69.00;;;;;;6181818;22;92525;-73
2023/05/14 09:53:12;;;;;;;27.77;22.67;;;20.90;68.50;;;;;;6181171;22;93392;-73
2023/05/14 09:55:38;;;;;;;30.65;23.55;;;20.60;71.10;;;;;;6182693;22;93294;-75
2023/05/14 09:58:04;;;;;;;31.15;24.88;;;20.60;69.00;;;;;;6181903;22;92437;-75
2023/05/14 10:00:34;;;;;;;31.20;25.58;;;20.60;69.70;;;;;;6181516;22;93483;-75
2023/05/14 10:03:05;;;;;;;32.30;22.92;;;20.60;70.20;;;;;;6155167;22;95766;-73
2023/05/14 10:05:36;;;;;;;29.92;23.90;;;20.70;71.60;;;;;;6182276;22;92471;-73
2023/05/14 10:08:06;;;;;;;28.48;24.17;;;21.10;69.90;;;;;;6181733;22;92105;-73
2023/05/14 10:10:34;;;;;;;28.75;23.90;;;21.40;66.60;;;;;;6155316;22;97482;-73
2023/05/14 10:13:04;;;;;;;30.00;23.77;;;21.20;67.50;;;;;;6182257;22;93103;-74
2023/05/14 10:15:38;;;;;;;29.67;22.48;;;21.10;67.00;;;;;;6181632;22;92502;-73
2023/05/14 10:18:10;;;;;;;27.98;21.60;;;21.00;68.80;;;;;;6181815;22;92645;-73
2023/05/14 10:20:38;;;;;;;26.65;22.05;;;21.30;67.10;;;;;;6180711;22;94622;-73
2023/05/14 10:23:05;;;;;;;25.90;22.02;;;21.70;66.60;;;;;;6181626;22;94164;-72
2023/05/14 10:25:31;;;;;;;31.83;22.15;;;22.00;66.60;;;;;;6182501;22;92622;-73
2023/05/14 10:27:57;;;;;;;31.50;22.08;;;22.00;65.40;;;;;;6154848;22;92622;-73
2023/05/14 10:30:23;;;;;;;30.92;21.90;;;22.20;64.60;;;;;;6181419;22;93562;-73
2023/05/14 10:32:48;;;;;;;28.67;21.77;;;22.30;65.20;;;;;;6153220;22;96415;-73
2023/05/14 10:35:16;;;;;;;30.55;21.17;;;22.30;63.70;;;;;;6154110;22;92454;-73
2023/05/14 10:37:44;;;;;;;26.40;21.17;;;22.50;63.10;;;;;;6182394;22;91913;-73
2023/05/14 10:40:11;;;;;;;30.98;20.33;;;22.50;62.00;;;;;;6164606;22;92317;-73
2023/05/14 10:42:42;;;;;;;27.73;20.73;;;22.70;63.50;;;;;;6180665;22;93253;-73
2023/05/14 10:45:10;;;;;;;26.20;21.95;;;22.70;60.50;;;;;;6178284;22;93412;-73
2023/05/14 10:47:38;;;;;;;27.30;20.95;;;22.50;62.60;;;;;;6180794;22;92459;-73
2023/05/14 10:50:09;;;;;;;23.35;19.15;;;22.70;62.90;;;;;;6179962;22;93740;-73
2023/05/14 10:52:35;;;;;;;24.75;20.70;;;23.10;62.50;;;;;;6179960;22;93531;-73
2023/05/14 10:55:11;;;;;;;25.95;21.13;;;23.00;62.10;;;;;;6180418;22;92604;-73
2023/05/14 10:57:38;;;;;;;25.42;20.92;;;23.00;60.70;;;;;;6180686;22;92517;-73
2023/05/14 11:00:09;;;;;;;27.48;20.92;;;23.00;60.10;;;;;;6179536;22;93045;-73
2023/05/14 11:02:42;;;;;;;22.42;18.98;;;23.20;59.80;;;;;;6153487;22;96444;-73
2023/05/14 11:05:12;;;;;;;21.00;18.42;;;23.50;61.00;;;;;;6180183;22;92425;-73
2023/05/14 11:07:40;;;;;;;22.20;18.15;;;23.70;58.00;;;;;;6180559;22;92604;-73
2023/05/14 11:10:08;;;;;;;19.70;17.40;;;23.80;58.00;;;;;;6179069;22;94917;-73
2023/05/14 11:12:36;;;;;;;20.17;16.23;;;23.80;58.70;;;;;;6179731;22;95027;-74
2023/05/14 11:15:04;;;;;;;18.98;15.50;;;23.90;55.50;;;;;;6179833;22;92550;-73
2023/05/14 11:17:30;;;;;;;20.55;15.82;;;24.40;57.90;;;;;;6179349;22;92545;-73
2023/05/14 11:19:56;;;;;;;22.95;19.65;;;25.00;54.20;;;;;;6152130;22;97782;-73
2023/05/14 11:22:23;;;;;;;23.58;19.65;;;25.00;56.60;;;;;;6179153;22;92532;-73
2023/05/14 11:24:49;;;;;;;29.98;20.80;;;24.70;56.40;;;;;;6179574;22;92563;-73
2023/05/14 11:27:19;;;;;;;23.45;19.70;;;24.70;56.20;;;;;;6180210;22;91918;-73
2023/05/14 11:29:46;;;;;;;20.52;18.33;;;24.50;55.10;;;;;;6179850;22;93057;-74
2023/05/14 11:32:13;;;;;;;19.35;17.25;;;24.20;57.50;;;;;;6179711;22;92699;-74
2023/05/14 11:34:40;;;;;;;22.02;17.23;;;24.50;57.60;;;;;;6179951;22;93220;-74
2023/05/14 11:37:07;;;;;;;22.48;15.95;;;25.00;53.70;;;;;;6180700;22;92412;-73
2023/05/14 11:39:36;;;;;;;20.92;15.77;;;25.20;55.50;;;;;;6152338;22;96361;-74
2023/05/14 11:42:03;;;;;;;20.63;16.83;;;25.50;55.50;;;;;;6152863;22;96170;-73
2023/05/14 11:44:29;;;;;;;16.95;14.40;;;25.60;51.80;;;;;;6179177;22;92652;-74
2023/05/14 11:46:58;;;;;;;19.63;14.85;;;25.50;53.10;;;;;;6179021;22;92489;-74
2023/05/14 11:49:24;;;;;;;19.23;15.00;;;25.50;52.10;;;;;;6180907;22;93056;-74
2023/05/14 11:51:57;;;;;;;21.23;14.93;;;25.60;52.70;;;;;;6153423;22;94871;-73
2023/05/14 11:54:27;;;;;;;20.80;17.63;;;25.80;52.70;;;;;;6180221;22;92618;-74
2023/05/14 11:56:57;;;;;;;23.45;17.63;;;25.80;52.00;;;;;;6179635;22;92219;-74
2023/05/14 11:59:31;;;;;;;21.98;16.00;;;25.60;53.70;;;;;;6178711;22;94290;-74
2023/05/14 12:01:57;;;;;;;21.60;16.20;;;25.50;53.90;;;;;;6180007;22;94327;-74
2023/05/14 12:04:23;;;;;;;23.52;16.92;;;25.50;53.50;;;;;;6181380;22;92561;-74
2023/05/14 12:06:50;;;;;;;20.75;17.67;;;25.80;54.40;;;;;;6152180;22;92642;-73
2023/05/14 12:09:20;;;;;;;24.17;17.50;;;25.40;53.50;;;;;;6179816;22;93163;-74
2023/05/14 12:11:47;;;;;;;19.88;15.85;;;24.90;54.20;;;;;;6178519;22;93398;-74
2023/05/14 12:14:23;;;;;;;20.63;15.77;;;24.90;55.00;;;;;;6178575;22;92080;-74
2023/05/14 12:16:50;;;;;;;20.30;15.63;;;25.40;52.90;;;;;;6180988;22;91785;-74
2023/05/14 12:19:18;;;;;;;17.88;14.93;;;25.80;53.00;;;;;;6180692;22;93229;-74
2023/05/14 12:21:46;;;;;;;19.05;13.15;;;25.80;50.50;;;;;;6179458;22;93848;-74
2023/05/14 12:24:14;;;;;;;19.10;14.13;;;25.90;52.70;;;;;;6179222;22;93537;-73
2023/05/14 12:26:44;;;;;;;18.15;13.63;;;25.80;51.80;;;;;;6152586;22;92580;-74